createdAt,value
2022-11-28T00:00:00.522Z,989.71
2022-11-28T00:01:02.266Z,989.7
2022-11-28T00:02:04.085Z,989.75
2022-11-28T00:03:05.884Z,989.73
2022-11-28T00:04:07.459Z,989.77
2022-11-28T00:05:09.185Z,989.77
2022-11-28T00:06:10.938Z,989.76
2022-11-28T00:07:12.734Z,989.78
2022-11-28T00:08:14.402Z,989.79
2022-11-28T00:09:16.132Z,989.84
2022-11-28T00:10:17.872Z,989.84
2022-11-28T00:11:19.586Z,989.82
2022-11-28T00:12:21.363Z,989.82
2022-11-28T00:13:23.058Z,989.86
2022-11-28T00:14:24.802Z,989.88
2022-11-28T00:15:26.509Z,989.89
2022-11-28T00:16:28.384Z,989.84
2022-11-28T00:17:29.984Z,989.77
2022-11-28T00:18:31.751Z,989.76
2022-11-28T00:19:33.476Z,989.72
2022-11-28T00:20:35.200Z,989.73
2022-11-28T00:21:36.929Z,989.78
2022-11-28T00:22:38.713Z,989.74
2022-11-28T00:23:40.391Z,989.76
2022-11-28T00:24:42.506Z,989.77
2022-11-28T00:25:43.869Z,989.74
2022-11-28T00:26:45.595Z,989.75
2022-11-28T00:27:47.334Z,989.66
2022-11-28T00:28:49.186Z,989.67
2022-11-28T00:29:50.797Z,989.7
2022-11-28T00:30:52.536Z,989.72
2022-11-28T00:31:54.445Z,989.67
2022-11-28T00:32:56.001Z,989.69
2022-11-28T00:33:57.720Z,989.67
2022-11-28T00:34:59.458Z,989.7
2022-11-28T00:36:01.207Z,989.68
2022-11-28T00:37:02.941Z,989.72
2022-11-28T00:38:04.673Z,989.66
2022-11-28T00:39:06.398Z,989.62
2022-11-28T00:40:08.136Z,989.6
2022-11-28T00:41:09.884Z,989.64
2022-11-28T00:42:11.597Z,989.61
2022-11-28T00:43:13.424Z,989.62
2022-11-28T00:44:15.072Z,989.62
2022-11-28T00:45:16.800Z,989.56
2022-11-28T00:46:18.639Z,989.54
2022-11-28T00:47:20.275Z,989.57
2022-11-28T00:48:22.017Z,989.56
2022-11-28T00:49:23.764Z,989.54
2022-11-28T00:50:25.460Z,989.55
2022-11-28T00:51:27.209Z,989.53
2022-11-28T00:52:28.933Z,989.51
2022-11-28T00:53:30.668Z,989.45
2022-11-28T00:54:32.414Z,989.51
2022-11-28T00:55:34.123Z,989.47
2022-11-28T00:56:35.865Z,989.5
2022-11-28T00:57:37.604Z,989.51
2022-11-28T00:58:39.345Z,989.49
2022-11-28T00:59:41.071Z,989.4
2022-11-28T01:00:42.865Z,989.4
2022-11-28T01:01:44.631Z,989.42
2022-11-28T01:02:46.394Z,989.4
2022-11-28T01:03:48.013Z,989.44
2022-11-28T01:04:49.744Z,989.47
2022-11-28T01:05:51.460Z,989.51
2022-11-28T01:06:53.198Z,989.52
2022-11-28T01:07:55.000Z,989.48
2022-11-28T01:08:56.673Z,989.45
2022-11-28T01:09:58.408Z,989.46
2022-11-28T01:11:00.175Z,989.46
2022-11-28T01:12:01.916Z,989.45
2022-11-28T01:13:03.616Z,989.45
2022-11-28T01:14:05.347Z,989.43
2022-11-28T01:15:07.091Z,989.44
2022-11-28T01:16:08.903Z,989.42
2022-11-28T01:17:10.532Z,989.43
2022-11-28T01:18:12.258Z,989.32
2022-11-28T01:19:14.006Z,989.4
2022-11-28T01:20:15.748Z,989.39
2022-11-28T01:21:17.491Z,989.45
2022-11-28T01:22:19.209Z,989.47
2022-11-28T01:23:21.001Z,989.36
2022-11-28T01:24:22.668Z,989.4
2022-11-28T01:25:24.413Z,989.38
2022-11-28T01:26:26.133Z,989.3
2022-11-28T01:27:27.874Z,989.33
2022-11-28T01:28:29.607Z,989.26
2022-11-28T01:29:31.351Z,989.25
2022-11-28T01:30:33.080Z,989.23
2022-11-28T01:31:34.835Z,989.29
2022-11-28T01:32:36.551Z,989.24
2022-11-28T01:33:38.273Z,989.28
2022-11-28T01:34:40.275Z,989.27
2022-11-28T01:35:41.748Z,989.3
2022-11-28T01:36:43.479Z,989.27
2022-11-28T01:37:45.203Z,989.22
2022-11-28T01:38:46.970Z,989.23
2022-11-28T01:39:48.693Z,989.22
2022-11-28T01:40:50.404Z,989.17
2022-11-28T01:41:52.143Z,989.17
2022-11-28T01:42:53.867Z,989.11
2022-11-28T01:43:55.599Z,989.06
2022-11-28T01:44:57.321Z,989.08
2022-11-28T01:45:59.091Z,989.1
2022-11-28T01:47:00.868Z,989.12
2022-11-28T01:48:02.536Z,989.03
2022-11-28T01:49:04.274Z,989
2022-11-28T01:50:05.994Z,989.05
2022-11-28T01:51:07.733Z,989.07
2022-11-28T01:52:09.459Z,989.01
2022-11-28T01:53:11.217Z,989.06
2022-11-28T01:54:13.980Z,989.12
2022-11-28T01:55:14.615Z,989.1
2022-11-28T01:56:16.422Z,989.01
2022-11-28T01:57:18.092Z,989.03
2022-11-28T01:58:21.269Z,988.98
2022-11-28T01:59:21.521Z,988.96
2022-11-28T02:00:25.568Z,988.9
2022-11-28T02:01:26.475Z,988.95
2022-11-28T02:02:26.847Z,988.9
2022-11-28T02:03:28.450Z,988.87
2022-11-28T02:04:30.171Z,988.87
2022-11-28T02:05:31.903Z,988.83
2022-11-28T02:06:33.658Z,988.82
2022-11-28T02:07:35.509Z,988.86
2022-11-28T02:08:37.173Z,988.83
2022-11-28T02:09:38.833Z,988.87
2022-11-28T02:10:40.570Z,988.85
2022-11-28T02:11:42.333Z,988.88
2022-11-28T02:12:44.062Z,988.84
2022-11-28T02:13:45.766Z,988.8
2022-11-28T02:14:47.521Z,988.84
2022-11-28T02:15:49.323Z,988.81
2022-11-28T02:16:50.996Z,988.75
2022-11-28T02:17:52.712Z,988.85
2022-11-28T02:18:54.441Z,988.84
2022-11-28T02:19:56.188Z,988.87
2022-11-28T02:20:57.957Z,988.8
2022-11-28T02:21:59.640Z,988.82
2022-11-28T02:23:01.406Z,988.81
2022-11-28T02:24:03.151Z,988.82
2022-11-28T02:25:04.845Z,988.82
2022-11-28T02:26:06.584Z,988.79
2022-11-28T02:27:08.312Z,988.75
2022-11-28T02:28:10.047Z,988.75
2022-11-28T02:29:11.792Z,988.73
2022-11-28T02:30:13.534Z,988.73
2022-11-28T02:31:15.297Z,988.78
2022-11-28T02:32:17.016Z,988.75
2022-11-28T02:33:18.714Z,988.71
2022-11-28T02:34:20.461Z,988.71
2022-11-28T02:35:22.194Z,988.74
2022-11-28T02:36:23.915Z,988.75
2022-11-28T02:37:25.643Z,988.71
2022-11-28T02:38:27.378Z,988.75
2022-11-28T02:39:29.173Z,988.8
2022-11-28T02:40:30.844Z,988.84
2022-11-28T02:41:32.591Z,988.7
2022-11-28T02:42:34.375Z,988.71
2022-11-28T02:43:36.087Z,988.71
2022-11-28T02:44:37.914Z,988.71
2022-11-28T02:45:39.579Z,988.66
2022-11-28T02:46:41.337Z,988.66
2022-11-28T02:47:43.009Z,988.66
2022-11-28T02:48:44.745Z,988.63
2022-11-28T02:49:46.463Z,988.62
2022-11-28T02:50:48.247Z,988.62
2022-11-28T02:51:49.919Z,988.56
2022-11-28T02:52:51.660Z,988.56
2022-11-28T02:53:53.390Z,988.53
2022-11-28T02:54:55.127Z,988.54
2022-11-28T02:55:56.839Z,988.52
2022-11-28T02:56:58.581Z,988.52
2022-11-28T02:58:00.346Z,988.52
2022-11-28T02:59:02.035Z,988.52
2022-11-28T03:00:03.826Z,988.53
2022-11-28T03:01:05.719Z,988.49
2022-11-28T03:02:07.361Z,988.49
2022-11-28T03:03:09.066Z,988.45
2022-11-28T03:04:10.744Z,988.41
2022-11-28T03:05:12.498Z,988.4
2022-11-28T03:06:14.218Z,988.37
2022-11-28T03:07:15.975Z,988.44
2022-11-28T03:08:17.700Z,988.44
2022-11-28T03:09:19.388Z,988.42
2022-11-28T03:10:21.111Z,988.48
2022-11-28T03:11:22.879Z,988.4
2022-11-28T03:12:24.590Z,988.41
2022-11-28T03:13:26.316Z,988.38
2022-11-28T03:14:28.099Z,988.37
2022-11-28T03:15:29.810Z,988.36
2022-11-28T03:16:31.683Z,988.4
2022-11-28T03:17:33.267Z,988.37
2022-11-28T03:18:35.026Z,988.38
2022-11-28T03:19:37.919Z,988.39
2022-11-28T03:20:38.440Z,988.37
2022-11-28T03:21:40.199Z,988.39
2022-11-28T03:22:41.939Z,988.39
2022-11-28T03:23:43.652Z,988.37
2022-11-28T03:24:45.394Z,988.36
2022-11-28T03:25:47.152Z,988.34
2022-11-28T03:26:48.922Z,988.35
2022-11-28T03:27:50.630Z,988.34
2022-11-28T03:28:52.348Z,988.33
2022-11-28T03:29:54.054Z,988.32
2022-11-28T03:30:55.807Z,988.25
2022-11-28T03:31:57.656Z,988.2
2022-11-28T03:32:59.292Z,988.16
2022-11-28T03:34:00.994Z,988.17
2022-11-28T03:35:02.751Z,988.15
2022-11-28T03:36:04.489Z,988.1
2022-11-28T03:37:06.207Z,988.15
2022-11-28T03:38:07.954Z,988.17
2022-11-28T03:39:09.697Z,988.08
2022-11-28T03:40:11.403Z,988.11
2022-11-28T03:41:13.140Z,988.05
2022-11-28T03:42:14.902Z,988.03
2022-11-28T03:43:16.821Z,987.98
2022-11-28T03:44:18.362Z,988.05
2022-11-28T03:45:20.092Z,988
2022-11-28T03:46:21.956Z,987.95
2022-11-28T03:47:23.572Z,987.93
2022-11-28T03:48:28.106Z,988.01
2022-11-28T03:49:36.339Z,987.75
2022-11-28T03:50:39.103Z,987.99
2022-11-28T03:51:40.794Z,987.98
2022-11-28T03:52:42.557Z,988.05
2022-11-28T03:53:44.252Z,987.99
2022-11-28T03:54:46.038Z,987.97
2022-11-28T03:55:47.793Z,987.93
2022-11-28T03:56:49.487Z,987.97
2022-11-28T03:57:51.226Z,987.93
2022-11-28T03:58:57.138Z,987.91
2022-11-28T03:59:59.757Z,987.97
2022-11-28T04:01:01.585Z,987.95
2022-11-28T04:02:03.280Z,987.85
2022-11-28T04:03:05.078Z,987.89
2022-11-28T04:04:06.679Z,987.92
2022-11-28T04:05:08.422Z,987.92
2022-11-28T04:06:10.155Z,988
2022-11-28T04:07:11.919Z,987.98
2022-11-28T04:08:13.626Z,988.02
2022-11-28T04:09:15.354Z,987.98
2022-11-28T04:10:17.129Z,988.01
2022-11-28T04:11:18.883Z,988.04
2022-11-28T04:12:20.611Z,988
2022-11-28T04:13:22.293Z,988.02
2022-11-28T04:14:24.030Z,987.94
2022-11-28T04:15:25.758Z,988.01
2022-11-28T04:16:27.564Z,988.04
2022-11-28T04:17:30.383Z,988.03
2022-11-28T04:18:31.006Z,988.09
2022-11-28T04:19:32.750Z,988.05
2022-11-28T04:20:34.467Z,988.02
2022-11-28T04:21:36.210Z,988.01
2022-11-28T04:22:37.917Z,988.02
2022-11-28T04:23:39.667Z,988.03
2022-11-28T04:24:41.689Z,988.02
2022-11-28T04:25:43.125Z,987.98
2022-11-28T04:26:44.821Z,988
2022-11-28T04:27:46.587Z,987.99
2022-11-28T04:28:48.331Z,988.01
2022-11-28T04:29:50.042Z,988.02
2022-11-28T04:30:51.794Z,988.05
2022-11-28T04:31:53.597Z,988.03
2022-11-28T04:32:55.228Z,988.01
2022-11-28T04:33:57.001Z,987.92
2022-11-28T04:34:58.686Z,987.9
2022-11-28T04:36:00.436Z,987.87
2022-11-28T04:37:06.870Z,987.85
2022-11-28T04:38:03.947Z,987.91
2022-11-28T04:39:05.624Z,987.94
2022-11-28T04:40:07.386Z,987.92
2022-11-28T04:41:09.082Z,987.89
2022-11-28T04:42:10.814Z,987.93
2022-11-28T04:43:12.558Z,987.94
2022-11-28T04:44:14.292Z,987.92
2022-11-28T04:45:16.029Z,987.99
2022-11-28T04:46:17.793Z,987.95
2022-11-28T04:47:23.987Z,987.99
2022-11-28T04:48:52.029Z,987.98
2022-11-28T04:50:08.271Z,987.98
2022-11-28T04:51:16.396Z,987.94
2022-11-28T04:52:27.010Z,987.92
2022-11-28T04:53:55.225Z,987.95
2022-11-28T04:55:00.880Z,987.95
2022-11-28T04:57:57.827Z,987.91
2022-11-28T04:59:17.851Z,987.88
2022-11-28T05:01:19.730Z,987.88
2022-11-28T05:02:33.463Z,987.87
2022-11-28T05:03:42.755Z,987.85
2022-11-28T05:05:56.221Z,987.84
2022-11-28T05:06:58.654Z,987.8
2022-11-28T05:09:47.998Z,987.81
2022-11-28T05:11:01.364Z,987.81
2022-11-28T05:12:03.337Z,987.74
2022-11-28T05:13:07.337Z,987.81
2022-11-28T05:14:10.653Z,987.8
2022-11-28T05:15:16.586Z,987.79
2022-11-28T05:16:18.415Z,987.73
2022-11-28T05:17:20.042Z,987.77
2022-11-28T05:18:21.857Z,987.78
2022-11-28T05:19:23.565Z,987.75
2022-11-28T05:20:24.343Z,987.78
2022-11-28T05:21:28.212Z,987.73
2022-11-28T05:22:28.678Z,987.67
2022-11-28T05:23:29.566Z,987.75
2022-11-28T05:24:33.281Z,987.7
2022-11-28T05:25:33.857Z,987.65
2022-11-28T05:26:39.822Z,987.69
2022-11-28T05:27:42.497Z,987.6
2022-11-28T05:28:44.209Z,987.62
2022-11-28T05:29:51.908Z,987.57
2022-11-28T05:30:47.734Z,987.65
2022-11-28T05:31:49.520Z,987.67
2022-11-28T05:32:51.108Z,987.74
2022-11-28T05:33:52.850Z,987.77
2022-11-28T05:34:54.544Z,987.78
2022-11-28T05:35:57.682Z,987.8
2022-11-28T05:36:59.241Z,987.84
2022-11-28T05:37:59.714Z,987.81
2022-11-28T05:39:01.445Z,987.8
2022-11-28T05:40:03.134Z,987.81
2022-11-28T05:41:04.873Z,987.81
2022-11-28T05:42:06.659Z,987.78
2022-11-28T05:43:08.324Z,987.77
2022-11-28T05:44:10.050Z,987.8
2022-11-28T05:45:11.774Z,987.78
2022-11-28T05:46:13.550Z,987.82
2022-11-28T05:47:15.220Z,987.84
2022-11-28T05:48:16.967Z,987.82
2022-11-28T05:49:18.676Z,987.76
2022-11-28T05:50:20.410Z,987.8
2022-11-28T05:51:23.562Z,987.81
2022-11-28T05:52:44.434Z,987.8
2022-11-28T05:53:46.205Z,987.81
2022-11-28T05:54:47.936Z,987.76
2022-11-28T05:55:49.627Z,987.81
2022-11-28T05:56:51.379Z,987.83
2022-11-28T05:57:53.096Z,987.8
2022-11-28T05:58:54.841Z,987.81
2022-11-28T05:59:56.586Z,987.83
2022-11-28T06:00:58.300Z,987.81
2022-11-28T06:02:00.125Z,987.84
2022-11-28T06:03:07.932Z,987.81
2022-11-28T06:04:08.722Z,987.82
2022-11-28T06:05:27.657Z,987.79
2022-11-28T06:06:12.119Z,987.84
2022-11-28T06:07:13.899Z,987.83
2022-11-28T06:08:15.624Z,987.76
2022-11-28T06:09:18.559Z,987.75
2022-11-28T06:10:19.034Z,987.76
2022-11-28T06:11:20.787Z,987.78
2022-11-28T06:12:22.543Z,987.81
2022-11-28T06:13:24.244Z,987.8
2022-11-28T06:14:25.984Z,987.83
2022-11-28T06:15:27.704Z,987.82
2022-11-28T06:16:29.570Z,987.81
2022-11-28T06:17:31.218Z,987.85
2022-11-28T06:18:32.918Z,987.79
2022-11-28T06:19:34.654Z,987.83
2022-11-28T06:20:36.418Z,987.82
2022-11-28T06:21:38.159Z,987.77
2022-11-28T06:22:39.900Z,987.8
2022-11-28T06:23:41.575Z,987.82
2022-11-28T06:24:43.343Z,987.83
2022-11-28T06:25:45.043Z,987.76
2022-11-28T06:26:46.815Z,987.77
2022-11-28T06:27:48.506Z,987.75
2022-11-28T06:28:50.235Z,987.74
2022-11-28T06:29:52.063Z,987.77
2022-11-28T06:30:53.710Z,987.73
2022-11-28T06:31:55.512Z,987.78
2022-11-28T06:32:57.183Z,987.72
2022-11-28T06:33:58.950Z,987.77
2022-11-28T06:35:00.651Z,987.74
2022-11-28T06:36:02.409Z,987.76
2022-11-28T06:37:04.113Z,987.71
2022-11-28T06:38:09.043Z,987.72
2022-11-28T06:39:07.617Z,987.71
2022-11-28T06:40:09.303Z,987.76
2022-11-28T06:41:11.043Z,987.76
2022-11-28T06:42:12.791Z,987.79
2022-11-28T06:43:14.511Z,987.79
2022-11-28T06:44:16.333Z,987.83
2022-11-28T06:45:17.955Z,987.75
2022-11-28T06:46:19.755Z,987.72
2022-11-28T06:47:21.447Z,987.73
2022-11-28T06:48:23.260Z,987.76
2022-11-28T06:49:24.900Z,987.67
2022-11-28T06:50:26.682Z,987.73
2022-11-28T06:51:28.411Z,987.74
2022-11-28T06:52:30.170Z,987.71
2022-11-28T06:53:31.897Z,987.78
2022-11-28T06:54:33.560Z,987.79
2022-11-28T06:55:35.327Z,987.8
2022-11-28T06:56:37.030Z,987.79
2022-11-28T06:57:38.812Z,987.8
2022-11-28T06:58:40.534Z,987.69
2022-11-28T06:59:42.512Z,987.65
2022-11-28T07:00:44.063Z,987.68
2022-11-28T07:01:45.794Z,987.72
2022-11-28T07:02:47.496Z,987.75
2022-11-28T07:03:49.164Z,987.83
2022-11-28T07:04:50.919Z,987.82
2022-11-28T07:05:52.642Z,987.86
2022-11-28T07:06:54.359Z,987.88
2022-11-28T07:07:56.223Z,987.92
2022-11-28T07:08:57.874Z,987.91
2022-11-28T07:09:59.610Z,987.89
2022-11-28T07:11:01.348Z,987.99
2022-11-28T07:12:03.055Z,988
2022-11-28T07:13:05.730Z,988.03
2022-11-28T07:14:06.523Z,988.01
2022-11-28T07:15:08.266Z,988.02
2022-11-28T07:16:10.073Z,988.02
2022-11-28T07:17:11.716Z,988.03
2022-11-28T07:18:13.485Z,988.01
2022-11-28T07:19:15.167Z,988
2022-11-28T07:20:16.939Z,987.98
2022-11-28T07:21:18.647Z,988
2022-11-28T07:22:20.457Z,987.99
2022-11-28T07:23:22.114Z,987.94
2022-11-28T07:24:23.846Z,987.92
2022-11-28T07:25:25.581Z,987.95
2022-11-28T07:26:27.320Z,987.97
2022-11-28T07:27:29.055Z,987.98
2022-11-28T07:28:30.774Z,987.91
2022-11-28T07:29:32.527Z,987.94
2022-11-28T07:30:34.251Z,987.9
2022-11-28T07:31:36.013Z,987.89
2022-11-28T07:32:37.723Z,987.89
2022-11-28T07:33:39.505Z,987.86
2022-11-28T07:34:41.182Z,987.93
2022-11-28T07:35:42.911Z,988
2022-11-28T07:36:44.641Z,988
2022-11-28T07:37:46.389Z,987.96
2022-11-28T07:38:48.111Z,987.96
2022-11-28T07:39:49.842Z,987.96
2022-11-28T07:40:51.578Z,988.01
2022-11-28T07:41:53.380Z,987.86
2022-11-28T07:42:55.050Z,987.93
2022-11-28T07:43:56.793Z,987.98
2022-11-28T07:44:58.510Z,987.95
2022-11-28T07:46:01.547Z,987.99
2022-11-28T07:47:02.039Z,987.97
2022-11-28T07:48:03.764Z,987.98
2022-11-28T07:49:05.463Z,987.95
2022-11-28T07:50:07.182Z,987.98
2022-11-28T07:51:08.949Z,987.98
2022-11-28T07:52:10.689Z,987.97
2022-11-28T07:53:12.381Z,987.96
2022-11-28T07:54:14.111Z,987.97
2022-11-28T07:55:15.854Z,988
2022-11-28T07:56:17.586Z,987.96
2022-11-28T07:57:19.352Z,987.99
2022-11-28T07:58:21.062Z,987.97
2022-11-28T07:59:22.816Z,987.98
2022-11-28T08:00:24.522Z,987.97
2022-11-28T08:01:26.249Z,987.99
2022-11-28T08:02:28.069Z,987.98
2022-11-28T08:03:29.703Z,987.93
2022-11-28T08:04:31.471Z,987.95
2022-11-28T08:05:33.179Z,987.93
2022-11-28T08:06:34.910Z,987.93
2022-11-28T08:07:36.722Z,987.84
2022-11-28T08:08:38.390Z,987.86
2022-11-28T08:09:40.666Z,987.85
2022-11-28T08:10:41.843Z,987.82
2022-11-28T08:11:43.569Z,987.8
2022-11-28T08:12:45.305Z,987.89
2022-11-28T08:13:47.074Z,987.82
2022-11-28T08:14:48.782Z,987.79
2022-11-28T08:15:50.521Z,987.81
2022-11-28T08:16:52.345Z,987.77
2022-11-28T08:17:53.992Z,987.71
2022-11-28T08:18:55.706Z,987.75
2022-11-28T08:19:57.493Z,987.76
2022-11-28T08:20:59.209Z,987.7
2022-11-28T08:22:00.909Z,987.68
2022-11-28T08:23:02.638Z,987.68
2022-11-28T08:24:04.394Z,987.72
2022-11-28T08:25:06.109Z,987.73
2022-11-28T08:26:07.858Z,987.77
2022-11-28T08:27:09.572Z,987.79
2022-11-28T08:28:11.337Z,987.8
2022-11-28T08:29:13.040Z,987.81
2022-11-28T08:30:14.794Z,987.83
2022-11-28T08:31:16.594Z,987.83
2022-11-28T08:32:18.304Z,987.84
2022-11-28T08:33:20.029Z,987.9
2022-11-28T08:34:21.765Z,987.87
2022-11-28T08:35:23.476Z,987.95
2022-11-28T08:36:25.244Z,987.92
2022-11-28T08:37:26.920Z,987.98
2022-11-28T08:38:29.099Z,987.86
2022-11-28T08:39:30.373Z,987.9
2022-11-28T08:40:32.102Z,987.9
2022-11-28T08:41:33.855Z,987.9
2022-11-28T08:42:35.583Z,987.92
2022-11-28T08:43:37.323Z,987.93
2022-11-28T08:44:39.063Z,987.91
2022-11-28T08:45:40.882Z,987.9
2022-11-28T08:46:42.526Z,987.85
2022-11-28T08:47:44.269Z,987.88
2022-11-28T08:48:46.016Z,987.84
2022-11-28T08:49:47.733Z,987.88
2022-11-28T08:50:49.456Z,987.84
2022-11-28T08:51:51.177Z,987.85
2022-11-28T08:52:52.929Z,987.81
2022-11-28T08:53:59.026Z,987.83
2022-11-28T08:54:56.388Z,987.77
2022-11-28T08:55:58.150Z,987.73
2022-11-28T08:56:59.841Z,987.79
2022-11-28T08:58:01.579Z,987.81
2022-11-28T08:59:03.314Z,987.77
2022-11-28T09:00:05.048Z,987.82
2022-11-28T09:01:06.858Z,987.79
2022-11-28T09:02:08.512Z,987.88
2022-11-28T09:03:10.277Z,987.9
2022-11-28T09:04:12.088Z,987.82
2022-11-28T09:05:13.728Z,987.84
2022-11-28T09:06:15.498Z,987.84
2022-11-28T09:07:17.264Z,987.82
2022-11-28T09:08:36.691Z,987.88
2022-11-28T09:09:41.230Z,987.8
2022-11-28T09:10:42.955Z,987.79
2022-11-28T09:11:44.695Z,987.86
2022-11-28T09:12:46.465Z,987.88
2022-11-28T09:13:48.154Z,987.85
2022-11-28T09:15:05.370Z,987.84
2022-11-28T09:16:07.152Z,987.87
2022-11-28T09:17:08.933Z,987.8
2022-11-28T09:18:10.623Z,987.82
2022-11-28T09:19:12.324Z,987.81
2022-11-28T09:20:13.988Z,987.81
2022-11-28T09:21:15.815Z,987.78
2022-11-28T09:22:17.450Z,987.77
2022-11-28T09:23:19.249Z,987.75
2022-11-28T09:24:20.914Z,987.77
2022-11-28T09:25:22.679Z,987.79
2022-11-28T09:26:24.390Z,987.82
2022-11-28T09:27:26.117Z,987.77
2022-11-28T09:28:27.876Z,987.84
2022-11-28T09:29:29.583Z,987.88
2022-11-28T09:30:31.450Z,987.82
2022-11-28T09:31:33.117Z,987.84
2022-11-28T09:32:34.792Z,987.77
2022-11-28T09:33:36.566Z,987.84
2022-11-28T09:34:38.277Z,987.83
2022-11-28T09:35:40.004Z,987.86
2022-11-28T09:36:41.777Z,987.82
2022-11-28T09:39:04.773Z,987.83
2022-11-28T09:40:12.980Z,987.82
2022-11-28T09:41:08.224Z,987.87
2022-11-28T09:42:09.975Z,987.82
2022-11-28T09:43:11.662Z,987.81
2022-11-28T09:44:13.431Z,987.8
2022-11-28T09:45:15.144Z,987.82
2022-11-28T09:46:17.024Z,987.79
2022-11-28T09:47:18.662Z,987.82
2022-11-28T09:48:20.394Z,987.84
2022-11-28T09:49:22.130Z,987.84
2022-11-28T09:50:25.895Z,987.82
2022-11-28T09:51:31.901Z,987.81
2022-11-28T09:52:32.531Z,987.78
2022-11-28T09:53:34.174Z,987.75
2022-11-28T09:54:35.920Z,987.76
2022-11-28T09:55:40.680Z,987.75
2022-11-28T09:56:42.372Z,987.74
2022-11-28T09:57:44.171Z,987.81
2022-11-28T09:58:45.860Z,987.76
2022-11-28T09:59:47.627Z,987.71
2022-11-28T10:00:54.093Z,987.67
2022-11-28T10:02:47.893Z,987.79
2022-11-28T10:03:49.753Z,987.77
2022-11-28T10:04:51.587Z,987.8
2022-11-28T10:05:53.155Z,987.75
2022-11-28T10:06:54.818Z,987.67
2022-11-28T10:07:56.599Z,987.77
2022-11-28T10:08:58.324Z,987.78
2022-11-28T10:10:00.049Z,987.81
2022-11-28T10:11:01.744Z,987.8
2022-11-28T10:12:03.522Z,987.77
2022-11-28T10:13:05.209Z,987.75
2022-11-28T10:14:08.467Z,987.71
2022-11-28T10:15:08.703Z,987.69
2022-11-28T10:16:10.424Z,987.74
2022-11-28T10:17:12.269Z,987.78
2022-11-28T10:18:13.894Z,987.69
2022-11-28T10:19:31.655Z,987.75
2022-11-28T10:20:17.452Z,987.77
2022-11-28T10:26:21.244Z,987.76
2022-11-28T10:27:26.926Z,987.74
2022-11-28T10:29:12.849Z,987.66
2022-11-28T10:31:54.458Z,987.69
2022-11-28T10:33:11.487Z,987.71
2022-11-28T10:34:13.218Z,987.7
2022-11-28T10:35:14.929Z,987.7
2022-11-28T10:36:16.657Z,987.69
2022-11-28T10:37:18.374Z,987.69
2022-11-28T10:38:20.207Z,987.68
2022-11-28T10:39:57.601Z,987.63
2022-11-28T10:41:03.438Z,987.65
2022-11-28T10:42:03.705Z,987.61
2022-11-28T10:43:05.432Z,987.63
2022-11-28T10:44:07.174Z,987.59
2022-11-28T10:45:08.903Z,987.62
2022-11-28T10:46:10.707Z,987.61
2022-11-28T10:47:12.380Z,987.46
2022-11-28T10:48:39.113Z,987.58
2022-11-28T10:49:20.992Z,987.53
2022-11-28T10:50:22.723Z,987.54
2022-11-28T10:51:36.798Z,987.52
2022-11-28T10:52:37.093Z,987.52
2022-11-28T10:54:14.605Z,987.5
2022-11-28T10:55:18.600Z,987.51
2022-11-28T10:56:21.645Z,987.52
2022-11-28T10:58:05.755Z,987.48
2022-11-28T10:59:54.942Z,987.47
2022-11-28T11:01:07.340Z,987.48
2022-11-28T11:02:37.951Z,987.51
2022-11-28T11:11:24.685Z,987.5
2022-11-28T11:14:18.799Z,987.45
2022-11-28T11:15:40.836Z,987.48
2022-11-28T11:16:49.071Z,987.5
2022-11-28T11:17:56.357Z,987.46
2022-11-28T11:19:02.854Z,987.46
2022-11-28T11:20:04.520Z,987.44
2022-11-28T11:21:15.754Z,987.44
2022-11-28T11:22:17.269Z,987.4
2022-11-28T11:23:17.976Z,987.46
2022-11-28T11:24:20.787Z,987.44
2022-11-28T11:25:22.495Z,987.43
2022-11-28T11:26:24.224Z,987.4
2022-11-28T11:27:25.938Z,987.38
2022-11-28T11:28:27.708Z,987.38
2022-11-28T11:32:07.456Z,987.43
2022-11-28T11:33:09.085Z,987.41
2022-11-28T11:34:10.816Z,987.43
2022-11-28T11:35:12.544Z,987.41
2022-11-28T11:36:14.288Z,987.42
2022-11-28T11:37:16.021Z,987.43
2022-11-28T11:38:17.748Z,987.45
2022-11-28T11:39:19.486Z,987.44
2022-11-28T11:40:21.204Z,987.43
2022-11-28T11:41:22.945Z,987.43
2022-11-28T11:42:24.770Z,987.42
2022-11-28T11:43:26.425Z,987.42
2022-11-28T11:44:28.177Z,987.33
2022-11-28T11:45:29.885Z,987.35
2022-11-28T11:46:31.748Z,987.37
2022-11-28T11:47:33.445Z,987.38
2022-11-28T11:48:35.095Z,987.38
2022-11-28T11:49:38.081Z,987.35
2022-11-28T11:50:38.538Z,987.37
2022-11-28T11:51:40.284Z,987.33
2022-11-28T11:52:42.007Z,987.34
2022-11-28T11:53:45.079Z,987.39
2022-11-28T11:54:45.490Z,987.41
2022-11-28T11:55:47.206Z,987.42
2022-11-28T11:56:53.518Z,987.42
2022-11-28T11:57:50.696Z,987.37
2022-11-28T11:58:52.421Z,987.33
2022-11-28T11:59:54.275Z,987.39
2022-11-28T12:00:55.938Z,987.32
2022-11-28T12:01:57.640Z,987.35
2022-11-28T12:02:59.625Z,987.3
2022-11-28T12:04:44.440Z,987.36
2022-11-28T12:05:28.589Z,987.35
2022-11-28T12:06:30.419Z,987.4
2022-11-28T12:07:32.144Z,987.38
2022-11-28T12:08:33.869Z,987.38
2022-11-28T12:09:35.539Z,987.36
2022-11-28T12:10:37.216Z,987.35
2022-11-28T12:11:43.770Z,987.32
2022-11-28T12:12:40.692Z,987.36
2022-11-28T12:13:43.558Z,987.35
2022-11-28T12:15:06.843Z,987.31
2022-11-28T12:16:09.384Z,987.32
2022-11-28T12:18:12.763Z,987.33
2022-11-28T12:19:14.517Z,987.35
2022-11-28T12:20:16.282Z,987.36
2022-11-28T12:21:17.985Z,987.39
2022-11-28T12:22:19.707Z,987.35
2022-11-28T12:23:21.473Z,987.41
2022-11-28T12:24:23.232Z,987.38
2022-11-28T12:25:24.937Z,987.41
2022-11-28T12:26:26.629Z,987.36
2022-11-28T12:27:28.367Z,987.36
2022-11-28T12:28:31.132Z,987.36
2022-11-28T12:29:31.836Z,987.39
2022-11-28T12:30:33.606Z,987.4
2022-11-28T12:31:35.416Z,987.4
2022-11-28T12:32:37.045Z,987.4
2022-11-28T12:33:38.822Z,987.4
2022-11-28T12:34:40.506Z,987.39
2022-11-28T12:35:42.238Z,987.39
2022-11-28T12:36:43.962Z,987.39
2022-11-28T12:38:09.884Z,987.37
2022-11-28T12:38:47.442Z,987.38
2022-11-28T12:39:50.338Z,987.37
2022-11-28T12:40:50.913Z,987.33
2022-11-28T12:41:52.666Z,987.33
2022-11-28T12:42:54.375Z,987.33
2022-11-28T12:43:56.108Z,987.27
2022-11-28T12:44:57.913Z,987.3
2022-11-28T12:45:59.652Z,987.31
2022-11-28T12:47:01.342Z,987.23
2022-11-28T12:48:03.036Z,987.25
2022-11-28T12:49:04.839Z,987.28
2022-11-28T12:50:06.535Z,987.3
2022-11-28T12:51:08.239Z,987.27
2022-11-28T12:52:09.992Z,987.24
2022-11-28T12:53:11.747Z,987.19
2022-11-28T12:54:13.522Z,987.23
2022-11-28T12:55:15.179Z,987.21
2022-11-28T12:56:16.922Z,987.2
2022-11-28T12:57:18.638Z,987.2
2022-11-28T12:58:20.403Z,987.25
2022-11-28T12:59:22.116Z,987.19
2022-11-28T13:01:20.684Z,987.2
2022-11-28T13:02:28.159Z,987.16
2022-11-28T13:03:28.321Z,987.14
2022-11-28T13:04:45.698Z,987.17
2022-11-28T13:05:47.045Z,987.12
2022-11-28T13:06:49.063Z,987.17
2022-11-28T13:12:13.500Z,987.09
2022-11-28T13:13:15.239Z,987.07
2022-11-28T13:14:16.956Z,987.05
2022-11-28T13:15:18.725Z,987.09
2022-11-28T13:16:26.441Z,987.07
2022-11-28T13:17:22.171Z,987.08
2022-11-28T13:18:23.873Z,987.07
2022-11-28T13:19:25.637Z,987.05
2022-11-28T13:20:26.435Z,987.06
2022-11-28T13:21:36.483Z,987.02
2022-11-28T13:22:37.129Z,987.08
2022-11-28T13:23:37.724Z,987
2022-11-28T13:24:39.449Z,987.03
2022-11-28T13:25:41.159Z,987.03
2022-11-28T13:26:42.912Z,987.08
2022-11-28T13:27:44.627Z,987.05
2022-11-28T13:28:46.354Z,987.08
2022-11-28T13:29:48.127Z,987.09
2022-11-28T13:30:49.905Z,987.13
2022-11-28T13:31:51.584Z,987.14
2022-11-28T13:32:53.280Z,987.15
2022-11-28T13:33:55.024Z,987.14
2022-11-28T13:34:56.783Z,987.11
2022-11-28T13:35:58.528Z,987.1
2022-11-28T13:39:11.926Z,987.09